sensor_id;sensor_type;location;lat;lon;timestamp;P1;durP1;ratioP1;P2;durP2;ratioP2
3133;SDS011;1577;49.912;10.924;2023-04-02T00:01:17;2.77;;;1.20;;
3133;SDS011;1577;49.912;10.924;2023-04-02T00:08:56;2.73;;;1.40;;
3133;SDS011;1577;49.912;10.924;2023-04-02T00:11:42;2.33;;;1.27;;
3133;SDS011;1577;49.912;10.924;2023-04-02T00:14:14;4.70;;;1.40;;
3133;SDS011;1577;49.912;10.924;2023-04-02T00:16:42;2.87;;;1.27;;
3133;SDS011;1577;49.912;10.924;2023-04-02T00:19:12;2.97;;;1.47;;
3133;SDS011;1577;49.912;10.924;2023-04-02T00:21:53;3.10;;;1.30;;
3133;SDS011;1577;49.912;10.924;2023-04-02T00:24:21;3.23;;;1.60;;
3133;SDS011;1577;49.912;10.924;2023-04-02T00:26:47;2.77;;;1.40;;
3133;SDS011;1577;49.912;10.924;2023-04-02T00:29:15;4.30;;;1.60;;
3133;SDS011;1577;49.912;10.924;2023-04-02T00:31:43;5.60;;;1.30;;
3133;SDS011;1577;49.912;10.924;2023-04-02T00:34:33;4.10;;;1.63;;
3133;SDS011;1577;49.912;10.924;2023-04-02T00:37:00;4.70;;;1.63;;
3133;SDS011;1577;49.912;10.924;2023-04-02T00:39:27;4.17;;;1.50;;
3133;SDS011;1577;49.912;10.924;2023-04-02T00:41:55;3.30;;;1.77;;
3133;SDS011;1577;49.912;10.924;2023-04-02T00:44:31;4.57;;;1.60;;
3133;SDS011;1577;49.912;10.924;2023-04-02T00:47:03;2.63;;;1.30;;
3133;SDS011;1577;49.912;10.924;2023-04-02T00:49:35;3.40;;;1.50;;
3133;SDS011;1577;49.912;10.924;2023-04-02T00:52:05;5.43;;;1.83;;
3133;SDS011;1577;49.912;10.924;2023-04-02T00:54:44;3.43;;;1.53;;
3133;SDS011;1577;49.912;10.924;2023-04-02T00:57:15;3.73;;;1.57;;
3133;SDS011;1577;49.912;10.924;2023-04-02T01:00:13;3.10;;;1.70;;
3133;SDS011;1577;49.912;10.924;2023-04-02T01:05:40;2.87;;;1.90;;
3133;SDS011;1577;49.912;10.924;2023-04-02T01:14:02;3.80;;;1.97;;
3133;SDS011;1577;49.912;10.924;2023-04-02T01:24:43;6.67;;;2.10;;
3133;SDS011;1577;49.912;10.924;2023-04-02T01:27:23;3.60;;;2.20;;
3133;SDS011;1577;49.912;10.924;2023-04-02T01:29:54;4.90;;;2.27;;
3133;SDS011;1577;49.912;10.924;2023-04-02T01:32:21;4.00;;;2.20;;
3133;SDS011;1577;49.912;10.924;2023-04-02T01:34:50;3.90;;;2.23;;
3133;SDS011;1577;49.912;10.924;2023-04-02T01:45:34;4.13;;;2.50;;
3133;SDS011;1577;49.912;10.924;2023-04-02T01:48:01;3.13;;;2.03;;
3133;SDS011;1577;49.912;10.924;2023-04-02T01:50:37;8.67;;;2.37;;
3133;SDS011;1577;49.912;10.924;2023-04-02T01:53:04;3.40;;;2.33;;
3133;SDS011;1577;49.912;10.924;2023-04-02T01:55:39;4.20;;;2.10;;
3133;SDS011;1577;49.912;10.924;2023-04-02T01:58:15;4.43;;;2.30;;
3133;SDS011;1577;49.912;10.924;2023-04-02T02:03:31;4.77;;;2.70;;
3133;SDS011;1577;49.912;10.924;2023-04-02T02:05:57;6.93;;;2.23;;
3133;SDS011;1577;49.912;10.924;2023-04-02T02:11:02;3.50;;;2.23;;
3133;SDS011;1577;49.912;10.924;2023-04-02T02:13:28;3.60;;;2.60;;
3133;SDS011;1577;49.912;10.924;2023-04-02T02:15:56;4.80;;;2.30;;
3133;SDS011;1577;49.912;10.924;2023-04-02T02:18:23;4.50;;;2.80;;
3133;SDS011;1577;49.912;10.924;2023-04-02T02:20:51;5.57;;;1.70;;
3133;SDS011;1577;49.912;10.924;2023-04-02T02:23:18;4.20;;;2.80;;
3133;SDS011;1577;49.912;10.924;2023-04-02T02:25:44;2.83;;;1.90;;
3133;SDS011;1577;49.912;10.924;2023-04-02T02:33:48;3.70;;;2.07;;
3133;SDS011;1577;49.912;10.924;2023-04-02T02:38:56;4.20;;;2.30;;
3133;SDS011;1577;49.912;10.924;2023-04-02T02:46:22;3.67;;;2.33;;
3133;SDS011;1577;49.912;10.924;2023-04-02T02:48:51;3.47;;;2.53;;
3133;SDS011;1577;49.912;10.924;2023-04-02T02:54:24;6.00;;;2.77;;
3133;SDS011;1577;49.912;10.924;2023-04-02T02:56:53;4.20;;;2.60;;
3133;SDS011;1577;49.912;10.924;2023-04-02T02:59:25;5.40;;;2.87;;
3133;SDS011;1577;49.912;10.924;2023-04-02T03:01:53;5.00;;;2.80;;
3133;SDS011;1577;49.912;10.924;2023-04-02T03:04:22;3.90;;;2.67;;
3133;SDS011;1577;49.912;10.924;2023-04-02T03:06:49;3.73;;;2.70;;
3133;SDS011;1577;49.912;10.924;2023-04-02T03:11:51;4.90;;;2.80;;
3133;SDS011;1577;49.912;10.924;2023-04-02T03:14:34;4.40;;;2.50;;
3133;SDS011;1577;49.912;10.924;2023-04-02T03:17:29;3.57;;;2.30;;
3133;SDS011;1577;49.912;10.924;2023-04-02T03:20:44;4.70;;;2.63;;
3133;SDS011;1577;49.912;10.924;2023-04-02T03:22:44;5.43;;;2.73;;
3133;SDS011;1577;49.912;10.924;2023-04-02T03:25:20;3.83;;;2.77;;
3133;SDS011;1577;49.912;10.924;2023-04-02T03:28:11;4.83;;;2.93;;
3133;SDS011;1577;49.912;10.924;2023-04-02T03:30:41;4.27;;;3.00;;
3133;SDS011;1577;49.912;10.924;2023-04-02T03:33:13;4.30;;;2.70;;
3133;SDS011;1577;49.912;10.924;2023-04-02T03:35:52;8.00;;;3.50;;
3133;SDS011;1577;49.912;10.924;2023-04-02T03:38:27;5.67;;;2.90;;
3133;SDS011;1577;49.912;10.924;2023-04-02T03:43:30;5.13;;;2.90;;
3133;SDS011;1577;49.912;10.924;2023-04-02T03:46:16;5.03;;;3.20;;
3133;SDS011;1577;49.912;10.924;2023-04-02T03:49:06;7.93;;;3.40;;
3133;SDS011;1577;49.912;10.924;2023-04-02T03:51:51;6.43;;;3.70;;
3133;SDS011;1577;49.912;10.924;2023-04-02T03:54:18;4.97;;;2.83;;
3133;SDS011;1577;49.912;10.924;2023-04-02T03:56:44;4.90;;;3.20;;
3133;SDS011;1577;49.912;10.924;2023-04-02T03:59:23;4.80;;;3.00;;
3133;SDS011;1577;49.912;10.924;2023-04-02T04:05:05;8.80;;;3.83;;
3133;SDS011;1577;49.912;10.924;2023-04-02T04:07:42;5.83;;;3.27;;
3133;SDS011;1577;49.912;10.924;2023-04-02T04:10:13;4.83;;;3.50;;
3133;SDS011;1577;49.912;10.924;2023-04-02T04:12:45;4.70;;;3.10;;
3133;SDS011;1577;49.912;10.924;2023-04-02T04:15:16;6.63;;;4.20;;
3133;SDS011;1577;49.912;10.924;2023-04-02T04:21:02;6.07;;;4.20;;
3133;SDS011;1577;49.912;10.924;2023-04-02T04:23:39;6.30;;;3.87;;
3133;SDS011;1577;49.912;10.924;2023-04-02T04:31:29;8.13;;;4.77;;
3133;SDS011;1577;49.912;10.924;2023-04-02T04:34:07;6.70;;;4.13;;
3133;SDS011;1577;49.912;10.924;2023-04-02T04:36:40;5.40;;;4.10;;
3133;SDS011;1577;49.912;10.924;2023-04-02T04:39:19;8.73;;;4.47;;
3133;SDS011;1577;49.912;10.924;2023-04-02T04:41:49;8.80;;;5.17;;
3133;SDS011;1577;49.912;10.924;2023-04-02T04:44:20;5.80;;;4.10;;
3133;SDS011;1577;49.912;10.924;2023-04-02T04:47:14;8.07;;;5.50;;
3133;SDS011;1577;49.912;10.924;2023-04-02T04:49:59;12.90;;;6.20;;
3133;SDS011;1577;49.912;10.924;2023-04-02T04:52:35;7.67;;;5.10;;
3133;SDS011;1577;49.912;10.924;2023-04-02T05:06:12;7.40;;;5.23;;
3133;SDS011;1577;49.912;10.924;2023-04-02T05:08:48;9.50;;;6.23;;
3133;SDS011;1577;49.912;10.924;2023-04-02T05:11:29;8.80;;;5.23;;
3133;SDS011;1577;49.912;10.924;2023-04-02T05:14:00;6.00;;;3.90;;
3133;SDS011;1577;49.912;10.924;2023-04-02T05:16:39;5.40;;;3.10;;
3133;SDS011;1577;49.912;10.924;2023-04-02T05:22:29;8.40;;;3.77;;
3133;SDS011;1577;49.912;10.924;2023-04-02T05:27:53;5.77;;;1.97;;
3133;SDS011;1577;49.912;10.924;2023-04-02T05:32:57;2.43;;;0.80;;
3133;SDS011;1577;49.912;10.924;2023-04-02T05:35:33;1.83;;;0.70;;
3133;SDS011;1577;49.912;10.924;2023-04-02T05:38:05;1.30;;;0.60;;
3133;SDS011;1577;49.912;10.924;2023-04-02T05:40:35;1.30;;;0.50;;
3133;SDS011;1577;49.912;10.924;2023-04-02T05:43:06;1.83;;;0.80;;
3133;SDS011;1577;49.912;10.924;2023-04-02T05:45:34;1.50;;;0.50;;
3133;SDS011;1577;49.912;10.924;2023-04-02T05:48:03;1.53;;;0.70;;
3133;SDS011;1577;49.912;10.924;2023-04-02T05:50:42;1.87;;;0.80;;
3133;SDS011;1577;49.912;10.924;2023-04-02T05:53:22;1.43;;;0.60;;
3133;SDS011;1577;49.912;10.924;2023-04-02T05:56:06;3.97;;;1.17;;
3133;SDS011;1577;49.912;10.924;2023-04-02T05:58:40;1.77;;;0.60;;
3133;SDS011;1577;49.912;10.924;2023-04-02T06:09:15;1.93;;;0.70;;
3133;SDS011;1577;49.912;10.924;2023-04-02T06:11:46;2.43;;;0.57;;
3133;SDS011;1577;49.912;10.924;2023-04-02T06:14:18;1.73;;;0.60;;
3133;SDS011;1577;49.912;10.924;2023-04-02T06:16:43;1.97;;;0.60;;
3133;SDS011;1577;49.912;10.924;2023-04-02T06:19:32;2.13;;;0.60;;
3133;SDS011;1577;49.912;10.924;2023-04-02T06:21:59;1.70;;;0.50;;
3133;SDS011;1577;49.912;10.924;2023-04-02T06:24:35;1.80;;;0.60;;
3133;SDS011;1577;49.912;10.924;2023-04-02T06:27:03;1.63;;;0.60;;
3133;SDS011;1577;49.912;10.924;2023-04-02T06:29:34;1.50;;;0.50;;
3133;SDS011;1577;49.912;10.924;2023-04-02T06:32:05;1.53;;;0.63;;
3133;SDS011;1577;49.912;10.924;2023-04-02T06:34:32;2.27;;;0.80;;
3133;SDS011;1577;49.912;10.924;2023-04-02T06:37:11;1.80;;;0.80;;
3133;SDS011;1577;49.912;10.924;2023-04-02T06:39:43;2.53;;;0.80;;
3133;SDS011;1577;49.912;10.924;2023-04-02T06:44:40;2.57;;;0.63;;
3133;SDS011;1577;49.912;10.924;2023-04-02T06:47:18;2.17;;;0.63;;
3133;SDS011;1577;49.912;10.924;2023-04-02T06:49:52;2.40;;;0.70;;
3133;SDS011;1577;49.912;10.924;2023-04-02T06:52:32;2.83;;;0.70;;
3133;SDS011;1577;49.912;10.924;2023-04-02T06:57:45;2.20;;;0.60;;
3133;SDS011;1577;49.912;10.924;2023-04-02T07:00:21;1.97;;;0.60;;
3133;SDS011;1577;49.912;10.924;2023-04-02T07:03:00;2.20;;;0.50;;
3133;SDS011;1577;49.912;10.924;2023-04-02T07:05:30;2.20;;;0.60;;
3133;SDS011;1577;49.912;10.924;2023-04-02T07:07:56;3.37;;;0.70;;
3133;SDS011;1577;49.912;10.924;2023-04-02T07:10:21;2.00;;;0.50;;
3133;SDS011;1577;49.912;10.924;2023-04-02T07:12:47;2.10;;;0.50;;
3133;SDS011;1577;49.912;10.924;2023-04-02T07:15:16;2.10;;;0.50;;
3133;SDS011;1577;49.912;10.924;2023-04-02T07:17:43;2.17;;;0.53;;
3133;SDS011;1577;49.912;10.924;2023-04-02T07:20:31;2.60;;;0.60;;
3133;SDS011;1577;49.912;10.924;2023-04-02T07:23:01;2.33;;;0.50;;
3133;SDS011;1577;49.912;10.924;2023-04-02T07:25:27;2.20;;;0.50;;
3133;SDS011;1577;49.912;10.924;2023-04-02T07:27:53;2.50;;;0.60;;
3133;SDS011;1577;49.912;10.924;2023-04-02T07:30:20;2.70;;;0.60;;
3133;SDS011;1577;49.912;10.924;2023-04-02T07:32:46;2.70;;;0.50;;
3133;SDS011;1577;49.912;10.924;2023-04-02T07:35:11;2.67;;;0.50;;
3133;SDS011;1577;49.912;10.924;2023-04-02T07:37:37;2.20;;;0.60;;
3133;SDS011;1577;49.912;10.924;2023-04-02T07:40:21;2.90;;;0.70;;
3133;SDS011;1577;49.912;10.924;2023-04-02T07:42:48;6.00;;;0.70;;
3133;SDS011;1577;49.912;10.924;2023-04-02T07:45:14;3.10;;;0.80;;
3133;SDS011;1577;49.912;10.924;2023-04-02T07:47:40;2.20;;;0.50;;
3133;SDS011;1577;49.912;10.924;2023-04-02T07:50:06;2.90;;;0.67;;
3133;SDS011;1577;49.912;10.924;2023-04-02T07:52:33;2.90;;;0.70;;
3133;SDS011;1577;49.912;10.924;2023-04-02T07:55:03;9.80;;;0.60;;
3133;SDS011;1577;49.912;10.924;2023-04-02T07:57:28;3.20;;;0.60;;
3133;SDS011;1577;49.912;10.924;2023-04-02T07:59:54;3.63;;;0.80;;
3133;SDS011;1577;49.912;10.924;2023-04-02T08:02:21;3.77;;;0.90;;
3133;SDS011;1577;49.912;10.924;2023-04-02T08:04:48;2.90;;;0.60;;
3133;SDS011;1577;49.912;10.924;2023-04-02T08:07:15;3.00;;;0.60;;
3133;SDS011;1577;49.912;10.924;2023-04-02T08:09:42;2.90;;;0.60;;
3133;SDS011;1577;49.912;10.924;2023-04-02T08:12:10;2.90;;;0.60;;
3133;SDS011;1577;49.912;10.924;2023-04-02T08:14:37;3.20;;;0.80;;
3133;SDS011;1577;49.912;10.924;2023-04-02T08:17:03;3.60;;;0.60;;
3133;SDS011;1577;49.912;10.924;2023-04-02T08:19:29;2.83;;;0.67;;
3133;SDS011;1577;49.912;10.924;2023-04-02T08:21:57;3.13;;;0.80;;
3133;SDS011;1577;49.912;10.924;2023-04-02T08:24:23;2.97;;;0.60;;
3133;SDS011;1577;49.912;10.924;2023-04-02T08:26:49;3.33;;;0.63;;
3133;SDS011;1577;49.912;10.924;2023-04-02T08:29:18;3.60;;;0.70;;
3133;SDS011;1577;49.912;10.924;2023-04-02T08:31:44;4.13;;;0.60;;
3133;SDS011;1577;49.912;10.924;2023-04-02T08:34:10;5.60;;;0.70;;
3133;SDS011;1577;49.912;10.924;2023-04-02T08:36:37;5.87;;;0.80;;
3133;SDS011;1577;49.912;10.924;2023-04-02T08:39:04;5.90;;;0.67;;
3133;SDS011;1577;49.912;10.924;2023-04-02T08:41:57;6.37;;;0.90;;
3133;SDS011;1577;49.912;10.924;2023-04-02T08:44:34;6.90;;;1.50;;
3133;SDS011;1577;49.912;10.924;2023-04-02T08:47:04;5.70;;;0.70;;
3133;SDS011;1577;49.912;10.924;2023-04-02T08:49:39;5.10;;;0.70;;
3133;SDS011;1577;49.912;10.924;2023-04-02T08:55:02;5.10;;;0.80;;
3133;SDS011;1577;49.912;10.924;2023-04-02T09:00:19;5.73;;;1.30;;
3133;SDS011;1577;49.912;10.924;2023-04-02T09:02:51;6.00;;;1.17;;
3133;SDS011;1577;49.912;10.924;2023-04-02T09:05:32;6.13;;;1.10;;
3133;SDS011;1577;49.912;10.924;2023-04-02T09:07:59;7.60;;;1.37;;
3133;SDS011;1577;49.912;10.924;2023-04-02T09:10:37;6.47;;;1.40;;
3133;SDS011;1577;49.912;10.924;2023-04-02T09:13:14;6.97;;;1.43;;
3133;SDS011;1577;49.912;10.924;2023-04-02T09:15:41;6.30;;;0.90;;
3133;SDS011;1577;49.912;10.924;2023-04-02T09:18:15;6.13;;;0.80;;
3133;SDS011;1577;49.912;10.924;2023-04-02T09:20:42;6.00;;;0.70;;
3133;SDS011;1577;49.912;10.924;2023-04-02T09:23:13;5.97;;;0.90;;
3133;SDS011;1577;49.912;10.924;2023-04-02T09:25:45;5.97;;;0.63;;
3133;SDS011;1577;49.912;10.924;2023-04-02T09:28:12;6.17;;;0.80;;
3133;SDS011;1577;49.912;10.924;2023-04-02T09:30:45;6.00;;;0.80;;
3133;SDS011;1577;49.912;10.924;2023-04-02T09:36:35;6.27;;;0.80;;
3133;SDS011;1577;49.912;10.924;2023-04-02T09:39:13;6.17;;;0.90;;
3133;SDS011;1577;49.912;10.924;2023-04-02T09:41:42;6.30;;;0.90;;
3133;SDS011;1577;49.912;10.924;2023-04-02T09:46:46;6.10;;;0.70;;
3133;SDS011;1577;49.912;10.924;2023-04-02T09:49:28;7.60;;;0.90;;
3133;SDS011;1577;49.912;10.924;2023-04-02T09:54:35;5.53;;;0.70;;
3133;SDS011;1577;49.912;10.924;2023-04-02T10:00:03;5.30;;;0.80;;
3133;SDS011;1577;49.912;10.924;2023-04-02T10:02:31;5.53;;;0.60;;
3133;SDS011;1577;49.912;10.924;2023-04-02T10:05:01;5.70;;;0.83;;
3133;SDS011;1577;49.912;10.924;2023-04-02T10:09:56;5.57;;;0.67;;
3133;SDS011;1577;49.912;10.924;2023-04-02T10:12:23;6.43;;;0.80;;
3133;SDS011;1577;49.912;10.924;2023-04-02T10:14:50;6.50;;;1.10;;
3133;SDS011;1577;49.912;10.924;2023-04-02T10:17:19;5.37;;;0.70;;
3133;SDS011;1577;49.912;10.924;2023-04-02T10:19:59;6.10;;;0.80;;
3133;SDS011;1577;49.912;10.924;2023-04-02T10:22:30;7.13;;;1.00;;
3133;SDS011;1577;49.912;10.924;2023-04-02T10:24:57;7.37;;;1.27;;
3133;SDS011;1577;49.912;10.924;2023-04-02T10:30:19;6.10;;;0.80;;
3133;SDS011;1577;49.912;10.924;2023-04-02T10:32:56;6.20;;;0.77;;
3133;SDS011;1577;49.912;10.924;2023-04-02T10:36:52;7.63;;;0.90;;
3133;SDS011;1577;49.912;10.924;2023-04-02T10:50:03;6.60;;;1.10;;
3133;SDS011;1577;49.912;10.924;2023-04-02T10:55:48;7.17;;;1.40;;
3133;SDS011;1577;49.912;10.924;2023-04-02T10:58:27;8.13;;;1.80;;
3133;SDS011;1577;49.912;10.924;2023-04-02T11:00:57;7.50;;;1.30;;
3133;SDS011;1577;49.912;10.924;2023-04-02T11:03:36;7.57;;;1.13;;
3133;SDS011;1577;49.912;10.924;2023-04-02T11:06:13;8.70;;;1.40;;
3133;SDS011;1577;49.912;10.924;2023-04-02T11:08:49;7.90;;;1.17;;
3133;SDS011;1577;49.912;10.924;2023-04-02T11:11:20;9.00;;;1.30;;
3133;SDS011;1577;49.912;10.924;2023-04-02T11:16:33;8.60;;;1.20;;
3133;SDS011;1577;49.912;10.924;2023-04-02T11:24:03;8.17;;;1.00;;
3133;SDS011;1577;49.912;10.924;2023-04-02T11:26:41;8.67;;;1.03;;
3133;SDS011;1577;49.912;10.924;2023-04-02T11:29:21;7.80;;;1.13;;
3133;SDS011;1577;49.912;10.924;2023-04-02T11:42:46;8.40;;;1.20;;
3133;SDS011;1577;49.912;10.924;2023-04-02T11:50:59;6.60;;;1.67;;
3133;SDS011;1577;49.912;10.924;2023-04-02T11:53:27;6.50;;;1.00;;
3133;SDS011;1577;49.912;10.924;2023-04-02T12:07:06;7.40;;;1.20;;
3133;SDS011;1577;49.912;10.924;2023-04-02T12:09:54;7.87;;;1.23;;
3133;SDS011;1577;49.912;10.924;2023-04-02T12:14:50;7.10;;;1.20;;
3133;SDS011;1577;49.912;10.924;2023-04-02T12:17:20;6.57;;;0.90;;
3133;SDS011;1577;49.912;10.924;2023-04-02T12:20:03;7.30;;;1.10;;
3133;SDS011;1577;49.912;10.924;2023-04-02T12:22:33;7.50;;;1.17;;
3133;SDS011;1577;49.912;10.924;2023-04-02T12:28:12;7.27;;;1.10;;
3133;SDS011;1577;49.912;10.924;2023-04-02T12:30:42;7.57;;;1.17;;
3133;SDS011;1577;49.912;10.924;2023-04-02T12:33:16;6.77;;;0.90;;
3133;SDS011;1577;49.912;10.924;2023-04-02T12:38:44;7.40;;;0.90;;
3133;SDS011;1577;49.912;10.924;2023-04-02T12:41:44;7.57;;;1.00;;
3133;SDS011;1577;49.912;10.924;2023-04-02T12:44:05;7.40;;;1.23;;
3133;SDS011;1577;49.912;10.924;2023-04-02T12:46:39;7.20;;;1.10;;
3133;SDS011;1577;49.912;10.924;2023-04-02T12:51:34;7.90;;;1.10;;
3133;SDS011;1577;49.912;10.924;2023-04-02T12:54:00;9.10;;;1.50;;
3133;SDS011;1577;49.912;10.924;2023-04-02T12:56:26;10.53;;;1.80;;
3133;SDS011;1577;49.912;10.924;2023-04-02T12:58:54;9.90;;;1.90;;
3133;SDS011;1577;49.912;10.924;2023-04-02T13:01:25;8.90;;;1.60;;
3133;SDS011;1577;49.912;10.924;2023-04-02T13:04:08;8.83;;;1.73;;
3133;SDS011;1577;49.912;10.924;2023-04-02T13:06:36;8.70;;;1.30;;
3133;SDS011;1577;49.912;10.924;2023-04-02T13:09:04;9.77;;;1.40;;
3133;SDS011;1577;49.912;10.924;2023-04-02T13:11:37;10.50;;;1.90;;
3133;SDS011;1577;49.912;10.924;2023-04-02T13:14:04;13.10;;;2.50;;
3133;SDS011;1577;49.912;10.924;2023-04-02T13:16:37;12.13;;;1.67;;
3133;SDS011;1577;49.912;10.924;2023-04-02T13:21:43;13.70;;;2.10;;
3133;SDS011;1577;49.912;10.924;2023-04-02T13:24:15;13.77;;;1.90;;
3133;SDS011;1577;49.912;10.924;2023-04-02T13:26:41;13.10;;;2.13;;
3133;SDS011;1577;49.912;10.924;2023-04-02T13:31:39;14.77;;;2.47;;
3133;SDS011;1577;49.912;10.924;2023-04-02T13:34:05;14.47;;;2.30;;
3133;SDS011;1577;49.912;10.924;2023-04-02T13:36:31;16.10;;;2.57;;
3133;SDS011;1577;49.912;10.924;2023-04-02T13:38:57;15.50;;;2.43;;
3133;SDS011;1577;49.912;10.924;2023-04-02T13:41:24;16.23;;;2.43;;
3133;SDS011;1577;49.912;10.924;2023-04-02T13:43:51;17.10;;;3.50;;
3133;SDS011;1577;49.912;10.924;2023-04-02T13:46:19;15.20;;;2.30;;
3133;SDS011;1577;49.912;10.924;2023-04-02T13:48:46;16.60;;;2.90;;
3133;SDS011;1577;49.912;10.924;2023-04-02T13:51:15;18.43;;;2.70;;
3133;SDS011;1577;49.912;10.924;2023-04-02T13:53:42;19.00;;;3.10;;
3133;SDS011;1577;49.912;10.924;2023-04-02T13:56:10;18.23;;;2.80;;
3133;SDS011;1577;49.912;10.924;2023-04-02T13:58:36;22.90;;;3.57;;
3133;SDS011;1577;49.912;10.924;2023-04-02T14:01:02;24.90;;;3.67;;
3133;SDS011;1577;49.912;10.924;2023-04-02T14:03:28;25.30;;;4.90;;
3133;SDS011;1577;49.912;10.924;2023-04-02T14:16:06;25.50;;;4.50;;
3133;SDS011;1577;49.912;10.924;2023-04-02T14:29:40;27.47;;;4.20;;
3133;SDS011;1577;49.912;10.924;2023-04-02T14:32:10;26.50;;;4.33;;
3133;SDS011;1577;49.912;10.924;2023-04-02T14:42:52;28.37;;;5.23;;
3133;SDS011;1577;49.912;10.924;2023-04-02T14:50:46;29.17;;;5.47;;
3133;SDS011;1577;49.912;10.924;2023-04-02T14:53:14;30.17;;;4.27;;
3133;SDS011;1577;49.912;10.924;2023-04-02T14:55:43;29.17;;;5.03;;
3133;SDS011;1577;49.912;10.924;2023-04-02T15:00:57;31.80;;;5.33;;
3133;SDS011;1577;49.912;10.924;2023-04-02T15:03:24;33.77;;;5.90;;
3133;SDS011;1577;49.912;10.924;2023-04-02T15:06:01;31.90;;;6.60;;
3133;SDS011;1577;49.912;10.924;2023-04-02T15:08:28;33.30;;;5.97;;
3133;SDS011;1577;49.912;10.924;2023-04-02T15:10:58;35.70;;;5.90;;
3133;SDS011;1577;49.912;10.924;2023-04-02T15:13:26;37.70;;;8.73;;
3133;SDS011;1577;49.912;10.924;2023-04-02T15:15:56;30.67;;;6.13;;
3133;SDS011;1577;49.912;10.924;2023-04-02T15:18:23;30.90;;;6.07;;
3133;SDS011;1577;49.912;10.924;2023-04-02T15:20:55;34.43;;;5.60;;
3133;SDS011;1577;49.912;10.924;2023-04-02T15:26:11;32.30;;;5.77;;
3133;SDS011;1577;49.912;10.924;2023-04-02T15:28:42;32.70;;;5.40;;
3133;SDS011;1577;49.912;10.924;2023-04-02T15:31:12;36.90;;;5.63;;
3133;SDS011;1577;49.912;10.924;2023-04-02T15:33:53;33.47;;;5.43;;
3133;SDS011;1577;49.912;10.924;2023-04-02T15:42:26;40.03;;;7.47;;
3133;SDS011;1577;49.912;10.924;2023-04-02T15:44:25;42.30;;;8.50;;
3133;SDS011;1577;49.912;10.924;2023-04-02T15:47:33;66.70;;;43.97;;
3133;SDS011;1577;49.912;10.924;2023-04-02T15:52:26;43.60;;;7.57;;
3133;SDS011;1577;49.912;10.924;2023-04-02T15:57:28;46.77;;;9.80;;
3133;SDS011;1577;49.912;10.924;2023-04-02T16:10:48;48.10;;;11.80;;
3133;SDS011;1577;49.912;10.924;2023-04-02T16:13:25;48.17;;;12.33;;
3133;SDS011;1577;49.912;10.924;2023-04-02T16:16:06;52.30;;;14.00;;
3133;SDS011;1577;49.912;10.924;2023-04-02T16:18:49;48.17;;;8.60;;
3133;SDS011;1577;49.912;10.924;2023-04-02T16:21:19;49.30;;;10.30;;
3133;SDS011;1577;49.912;10.924;2023-04-02T16:23:46;47.90;;;12.23;;
3133;SDS011;1577;49.912;10.924;2023-04-02T16:34:20;48.90;;;11.80;;
3133;SDS011;1577;49.912;10.924;2023-04-02T16:47:25;49.80;;;9.87;;
3133;SDS011;1577;49.912;10.924;2023-04-02T16:57:54;49.97;;;9.77;;
3133;SDS011;1577;49.912;10.924;2023-04-02T17:00:50;49.30;;;7.97;;
3133;SDS011;1577;49.912;10.924;2023-04-02T17:03:16;48.20;;;8.70;;
3133;SDS011;1577;49.912;10.924;2023-04-02T17:05:50;51.17;;;10.50;;
3133;SDS011;1577;49.912;10.924;2023-04-02T17:08:31;48.67;;;9.67;;
3133;SDS011;1577;49.912;10.924;2023-04-02T17:14:04;48.07;;;10.17;;
3133;SDS011;1577;49.912;10.924;2023-04-02T17:16:46;50.50;;;10.00;;
3133;SDS011;1577;49.912;10.924;2023-04-02T17:19:14;50.53;;;10.30;;
3133;SDS011;1577;49.912;10.924;2023-04-02T17:21:42;49.20;;;10.93;;
3133;SDS011;1577;49.912;10.924;2023-04-02T17:26:56;49.23;;;9.50;;
3133;SDS011;1577;49.912;10.924;2023-04-02T17:29:26;50.27;;;10.80;;
3133;SDS011;1577;49.912;10.924;2023-04-02T17:31:54;53.20;;;9.87;;
3133;SDS011;1577;49.912;10.924;2023-04-02T17:34:22;50.80;;;11.87;;
3133;SDS011;1577;49.912;10.924;2023-04-02T17:36:55;49.80;;;10.40;;
3133;SDS011;1577;49.912;10.924;2023-04-02T17:39:40;49.50;;;12.07;;
3133;SDS011;1577;49.912;10.924;2023-04-02T17:44:42;48.30;;;9.70;;
3133;SDS011;1577;49.912;10.924;2023-04-02T17:55:20;50.47;;;10.87;;
3133;SDS011;1577;49.912;10.924;2023-04-02T17:57:55;49.50;;;10.77;;
3133;SDS011;1577;49.912;10.924;2023-04-02T18:05:43;52.07;;;10.43;;
3133;SDS011;1577;49.912;10.924;2023-04-02T18:21:14;52.00;;;8.37;;
3133;SDS011;1577;49.912;10.924;2023-04-02T18:26:31;50.50;;;9.57;;
3133;SDS011;1577;49.912;10.924;2023-04-02T18:39:01;51.17;;;10.20;;
3133;SDS011;1577;49.912;10.924;2023-04-02T18:48:58;53.23;;;9.27;;
3133;SDS011;1577;49.912;10.924;2023-04-02T18:51:25;52.30;;;7.73;;
3133;SDS011;1577;49.912;10.924;2023-04-02T18:54:03;52.17;;;9.30;;
3133;SDS011;1577;49.912;10.924;2023-04-02T18:56:31;50.90;;;6.10;;
3133;SDS011;1577;49.912;10.924;2023-04-02T19:01:29;51.23;;;9.80;;
3133;SDS011;1577;49.912;10.924;2023-04-02T19:03:59;50.90;;;5.70;;
3133;SDS011;1577;49.912;10.924;2023-04-02T19:06:36;55.50;;;6.20;;
3133;SDS011;1577;49.912;10.924;2023-04-02T19:09:06;51.80;;;5.07;;
3133;SDS011;1577;49.912;10.924;2023-04-02T19:11:36;50.80;;;5.70;;
3133;SDS011;1577;49.912;10.924;2023-04-02T19:14:09;51.60;;;5.33;;
3133;SDS011;1577;49.912;10.924;2023-04-02T19:19:24;51.00;;;5.90;;
3133;SDS011;1577;49.912;10.924;2023-04-02T19:27:26;52.97;;;9.47;;
3133;SDS011;1577;49.912;10.924;2023-04-02T19:35:06;51.90;;;8.33;;
3133;SDS011;1577;49.912;10.924;2023-04-02T19:40:27;53.07;;;8.60;;
3133;SDS011;1577;49.912;10.924;2023-04-02T19:42:56;52.90;;;8.47;;
3133;SDS011;1577;49.912;10.924;2023-04-02T19:47:51;54.07;;;8.90;;
3133;SDS011;1577;49.912;10.924;2023-04-02T19:50:17;54.67;;;9.97;;
3133;SDS011;1577;49.912;10.924;2023-04-02T19:52:43;55.87;;;10.63;;
3133;SDS011;1577;49.912;10.924;2023-04-02T19:55:09;53.40;;;8.93;;
3133;SDS011;1577;49.912;10.924;2023-04-02T19:57:36;54.80;;;8.10;;
3133;SDS011;1577;49.912;10.924;2023-04-02T20:00:02;54.57;;;10.47;;
3133;SDS011;1577;49.912;10.924;2023-04-02T20:02:28;53.90;;;9.50;;
3133;SDS011;1577;49.912;10.924;2023-04-02T20:04:54;54.20;;;9.50;;
3133;SDS011;1577;49.912;10.924;2023-04-02T20:07:20;55.07;;;6.90;;
3133;SDS011;1577;49.912;10.924;2023-04-02T20:09:46;54.43;;;9.07;;
3133;SDS011;1577;49.912;10.924;2023-04-02T20:12:12;58.47;;;9.20;;
3133;SDS011;1577;49.912;10.924;2023-04-02T20:14:38;55.90;;;8.70;;
3133;SDS011;1577;49.912;10.924;2023-04-02T20:17:05;53.20;;;8.00;;
3133;SDS011;1577;49.912;10.924;2023-04-02T20:19:31;52.97;;;8.60;;
3133;SDS011;1577;49.912;10.924;2023-04-02T20:21:57;53.83;;;7.80;;
3133;SDS011;1577;49.912;10.924;2023-04-02T20:24:23;54.50;;;4.70;;
3133;SDS011;1577;49.912;10.924;2023-04-02T20:26:49;55.63;;;7.03;;
3133;SDS011;1577;49.912;10.924;2023-04-02T20:29:15;56.00;;;6.22;;
3133;SDS011;1577;49.912;10.924;2023-04-02T20:31:41;54.77;;;5.50;;
3133;SDS011;1577;49.912;10.924;2023-04-02T20:34:07;56.10;;;6.77;;
3133;SDS011;1577;49.912;10.924;2023-04-02T20:36:33;56.50;;;7.53;;
3133;SDS011;1577;49.912;10.924;2023-04-02T20:39:00;56.10;;;7.03;;
3133;SDS011;1577;49.912;10.924;2023-04-02T20:41:26;55.72;;;6.00;;
3133;SDS011;1577;49.912;10.924;2023-04-02T20:43:52;56.80;;;6.07;;
3133;SDS011;1577;49.912;10.924;2023-04-02T20:46:18;56.67;;;6.10;;
3133;SDS011;1577;49.912;10.924;2023-04-02T20:48:44;55.90;;;5.67;;
3133;SDS011;1577;49.912;10.924;2023-04-02T20:51:11;56.95;;;6.97;;
3133;SDS011;1577;49.912;10.924;2023-04-02T20:53:38;58.97;;;7.97;;
3133;SDS011;1577;49.912;10.924;2023-04-02T20:56:14;59.28;;;5.70;;
3133;SDS011;1577;49.912;10.924;2023-04-02T20:58:41;59.43;;;5.90;;
3133;SDS011;1577;49.912;10.924;2023-04-02T21:01:16;59.60;;;6.10;;
3133;SDS011;1577;49.912;10.924;2023-04-02T21:03:42;56.97;;;6.50;;
3133;SDS011;1577;49.912;10.924;2023-04-02T21:06:16;56.80;;;6.17;;
3133;SDS011;1577;49.912;10.924;2023-04-02T21:08:42;57.40;;;7.30;;
3133;SDS011;1577;49.912;10.924;2023-04-02T21:11:09;56.30;;;5.60;;
3133;SDS011;1577;49.912;10.924;2023-04-02T21:13:35;58.30;;;6.43;;
3133;SDS011;1577;49.912;10.924;2023-04-02T21:16:02;59.90;;;6.37;;